TAF KHOP 050800Z 0508/0614 02007KT 9999 BKN200 QNH2986INS
BECMG 0513/0514 02007KT 9999 FEW250 QNH2997INS TX11/0519Z TN03/0607Z
From batch tds/tafs/production/2024/2/5/h08_m00_tafs.cache.xml.gz
Issued (18 days ago)
Forecasts
0508/0513 2007KT 6+SM BKN20000

---
altim_in_hg: '29.85'
fcst_time_to: '2024-02-05T13:00:00Z'
sky_condition:
- sky_cover: BKN
  cloud_base_ft_agl: '20000'
wind_speed_kt: '7'
fcst_time_from: '2024-02-05T08:00:00Z'
wind_dir_degrees: '20'
visibility_statute_mi: 6+

BECMG 0514/0614 2007KT 6+SM FEW25000

---
altim_in_hg: '29.97'
temperature:
- valid_time: '2024-02-05T08:00:02Z'
- valid_time: '2024-02-05T08:00:02Z'
fcst_time_to: '2024-02-06T14:00:00Z'
sky_condition:
- sky_cover: FEW
  cloud_base_ft_agl: '25000'
time_becoming: '2024-02-05T14:00:00Z'
wind_speed_kt: '7'
fcst_time_from: '2024-02-05T13:00:00Z'
change_indicator: BECMG
wind_dir_degrees: '20'
visibility_statute_mi: 6+

talk